sensor_id;sensor_type;location;lat;lon;timestamp;P1;durP1;ratioP1;P2;durP2;ratioP2
28266;SDS011;15525;45.568;5.448;2024-02-15T00:00:11;23.95;;;14.07;;
28266;SDS011;15525;45.568;5.448;2024-02-15T00:02:37;24.83;;;14.80;;
28266;SDS011;15525;45.568;5.448;2024-02-15T00:05:02;26.73;;;13.95;;
28266;SDS011;15525;45.568;5.448;2024-02-15T00:07:28;24.42;;;14.23;;
28266;SDS011;15525;45.568;5.448;2024-02-15T00:09:53;23.08;;;13.80;;
28266;SDS011;15525;45.568;5.448;2024-02-15T00:12:19;26.77;;;13.38;;
28266;SDS011;15525;45.568;5.448;2024-02-15T00:14:45;20.67;;;12.77;;
28266;SDS011;15525;45.568;5.448;2024-02-15T00:17:10;22.92;;;13.35;;
28266;SDS011;15525;45.568;5.448;2024-02-15T00:19:36;24.20;;;13.88;;
28266;SDS011;15525;45.568;5.448;2024-02-15T00:22:04;24.65;;;13.95;;
28266;SDS011;15525;45.568;5.448;2024-02-15T00:24:30;25.10;;;13.95;;
28266;SDS011;15525;45.568;5.448;2024-02-15T00:26:56;24.27;;;13.38;;
28266;SDS011;15525;45.568;5.448;2024-02-15T00:29:21;22.38;;;12.48;;
28266;SDS011;15525;45.568;5.448;2024-02-15T00:31:47;24.83;;;12.25;;
28266;SDS011;15525;45.568;5.448;2024-02-15T00:34:12;21.17;;;12.15;;
28266;SDS011;15525;45.568;5.448;2024-02-15T00:36:38;22.55;;;12.27;;
28266;SDS011;15525;45.568;5.448;2024-02-15T00:39:08;26.67;;;12.73;;
28266;SDS011;15525;45.568;5.448;2024-02-15T00:41:34;22.38;;;12.77;;
28266;SDS011;15525;45.568;5.448;2024-02-15T00:43:59;22.58;;;12.65;;
28266;SDS011;15525;45.568;5.448;2024-02-15T00:46:25;22.60;;;12.40;;
28266;SDS011;15525;45.568;5.448;2024-02-15T00:48:54;21.77;;;12.73;;
28266;SDS011;15525;45.568;5.448;2024-02-15T00:51:20;25.27;;;13.32;;
28266;SDS011;15525;45.568;5.448;2024-02-15T00:53:45;21.20;;;12.15;;
28266;SDS011;15525;45.568;5.448;2024-02-15T00:56:10;23.70;;;12.80;;
28266;SDS011;15525;45.568;5.448;2024-02-15T00:58:36;21.58;;;12.23;;
28266;SDS011;15525;45.568;5.448;2024-02-15T01:01:02;23.65;;;12.02;;
28266;SDS011;15525;45.568;5.448;2024-02-15T01:03:27;21.23;;;11.70;;
28266;SDS011;15525;45.568;5.448;2024-02-15T01:05:53;23.13;;;12.30;;
28266;SDS011;15525;45.568;5.448;2024-02-15T01:08:18;23.90;;;11.93;;
28266;SDS011;15525;45.568;5.448;2024-02-15T01:10:45;20.60;;;11.38;;
28266;SDS011;15525;45.568;5.448;2024-02-15T01:13:10;21.33;;;11.48;;
28266;SDS011;15525;45.568;5.448;2024-02-15T01:39:10;19.52;;;10.40;;
28266;SDS011;15525;45.568;5.448;2024-02-15T01:41:36;20.33;;;11.13;;
28266;SDS011;15525;45.568;5.448;2024-02-15T01:44:01;21.52;;;11.15;;
28266;SDS011;15525;45.568;5.448;2024-02-15T01:46:27;19.92;;;10.90;;
28266;SDS011;15525;45.568;5.448;2024-02-15T01:48:54;18.15;;;10.90;;
28266;SDS011;15525;45.568;5.448;2024-02-15T01:51:21;20.73;;;10.85;;
28266;SDS011;15525;45.568;5.448;2024-02-15T01:53:48;18.05;;;11.15;;
28266;SDS011;15525;45.568;5.448;2024-02-15T01:56:14;18.63;;;11.20;;
28266;SDS011;15525;45.568;5.448;2024-02-15T01:58:41;21.23;;;11.13;;
28266;SDS011;15525;45.568;5.448;2024-02-15T02:01:10;19.92;;;11.02;;
28266;SDS011;15525;45.568;5.448;2024-02-15T02:03:36;15.80;;;9.88;;
28266;SDS011;15525;45.568;5.448;2024-02-15T02:06:01;18.63;;;10.80;;
28266;SDS011;15525;45.568;5.448;2024-02-15T02:08:28;17.58;;;10.68;;
28266;SDS011;15525;45.568;5.448;2024-02-15T02:10:53;17.58;;;10.43;;
28266;SDS011;15525;45.568;5.448;2024-02-15T02:13:19;20.63;;;11.23;;
28266;SDS011;15525;45.568;5.448;2024-02-15T02:15:44;19.38;;;11.38;;
28266;SDS011;15525;45.568;5.448;2024-02-15T02:18:10;20.90;;;10.80;;
28266;SDS011;15525;45.568;5.448;2024-02-15T02:20:35;16.98;;;10.35;;
28266;SDS011;15525;45.568;5.448;2024-02-15T02:23:13;24.35;;;11.65;;
28266;SDS011;15525;45.568;5.448;2024-02-15T02:25:40;20.50;;;11.77;;
28266;SDS011;15525;45.568;5.448;2024-02-15T02:28:08;20.52;;;11.20;;
28266;SDS011;15525;45.568;5.448;2024-02-15T02:30:35;19.45;;;11.20;;
28266;SDS011;15525;45.568;5.448;2024-02-15T02:33:00;21.42;;;11.80;;
28266;SDS011;15525;45.568;5.448;2024-02-15T02:35:26;21.30;;;11.95;;
28266;SDS011;15525;45.568;5.448;2024-02-15T02:37:57;19.15;;;11.35;;
28266;SDS011;15525;45.568;5.448;2024-02-15T02:40:23;21.25;;;11.13;;
28266;SDS011;15525;45.568;5.448;2024-02-15T02:42:52;19.30;;;11.00;;
28266;SDS011;15525;45.568;5.448;2024-02-15T02:45:21;19.65;;;11.07;;
28266;SDS011;15525;45.568;5.448;2024-02-15T02:47:47;23.17;;;10.93;;
28266;SDS011;15525;45.568;5.448;2024-02-15T02:50:22;21.42;;;11.65;;
28266;SDS011;15525;45.568;5.448;2024-02-15T02:52:48;19.98;;;10.85;;
28266;SDS011;15525;45.568;5.448;2024-02-15T02:55:14;21.85;;;10.75;;
28266;SDS011;15525;45.568;5.448;2024-02-15T02:57:40;24.80;;;11.60;;
28266;SDS011;15525;45.568;5.448;2024-02-15T03:00:08;24.35;;;11.40;;
28266;SDS011;15525;45.568;5.448;2024-02-15T03:02:44;26.00;;;12.30;;
28266;SDS011;15525;45.568;5.448;2024-02-15T03:05:10;23.23;;;10.98;;
28266;SDS011;15525;45.568;5.448;2024-02-15T03:07:36;23.55;;;11.18;;
28266;SDS011;15525;45.568;5.448;2024-02-15T03:10:03;23.27;;;11.10;;
28266;SDS011;15525;45.568;5.448;2024-02-15T03:12:37;24.52;;;11.55;;
28266;SDS011;15525;45.568;5.448;2024-02-15T03:15:03;27.77;;;12.25;;
28266;SDS011;15525;45.568;5.448;2024-02-15T03:17:29;27.88;;;11.73;;
28266;SDS011;15525;45.568;5.448;2024-02-15T03:19:56;24.92;;;11.18;;
28266;SDS011;15525;45.568;5.448;2024-02-15T03:22:22;24.80;;;10.73;;
28266;SDS011;15525;45.568;5.448;2024-02-15T03:24:50;20.15;;;11.00;;
28266;SDS011;15525;45.568;5.448;2024-02-15T03:27:15;22.60;;;10.68;;
28266;SDS011;15525;45.568;5.448;2024-02-15T03:29:40;19.88;;;9.43;;
28266;SDS011;15525;45.568;5.448;2024-02-15T03:32:06;18.92;;;9.52;;
28266;SDS011;15525;45.568;5.448;2024-02-15T03:34:31;18.67;;;9.57;;
28266;SDS011;15525;45.568;5.448;2024-02-15T03:36:57;21.90;;;9.13;;
28266;SDS011;15525;45.568;5.448;2024-02-15T03:39:23;15.15;;;8.20;;
28266;SDS011;15525;45.568;5.448;2024-02-15T03:41:49;18.38;;;7.78;;
28266;SDS011;15525;45.568;5.448;2024-02-15T03:44:15;15.13;;;8.10;;
28266;SDS011;15525;45.568;5.448;2024-02-15T03:46:43;15.23;;;8.25;;
28266;SDS011;15525;45.568;5.448;2024-02-15T03:49:08;15.38;;;8.70;;
28266;SDS011;15525;45.568;5.448;2024-02-15T03:51:36;15.02;;;8.25;;
28266;SDS011;15525;45.568;5.448;2024-02-15T03:54:01;14.95;;;8.43;;
28266;SDS011;15525;45.568;5.448;2024-02-15T03:56:29;15.85;;;8.48;;
28266;SDS011;15525;45.568;5.448;2024-02-15T03:58:56;18.95;;;9.25;;
28266;SDS011;15525;45.568;5.448;2024-02-15T04:01:23;16.35;;;8.98;;
28266;SDS011;15525;45.568;5.448;2024-02-15T04:03:48;16.58;;;8.38;;
28266;SDS011;15525;45.568;5.448;2024-02-15T04:06:14;18.40;;;8.90;;
28266;SDS011;15525;45.568;5.448;2024-02-15T04:08:40;13.63;;;8.23;;
28266;SDS011;15525;45.568;5.448;2024-02-15T04:11:05;15.85;;;8.82;;
28266;SDS011;15525;45.568;5.448;2024-02-15T04:13:32;14.32;;;8.68;;
28266;SDS011;15525;45.568;5.448;2024-02-15T04:15:58;15.82;;;8.90;;
28266;SDS011;15525;45.568;5.448;2024-02-15T04:18:23;17.85;;;9.20;;
28266;SDS011;15525;45.568;5.448;2024-02-15T04:20:49;19.58;;;9.52;;
28266;SDS011;15525;45.568;5.448;2024-02-15T04:23:14;18.80;;;10.05;;
28266;SDS011;15525;45.568;5.448;2024-02-15T04:25:40;19.05;;;10.32;;
28266;SDS011;15525;45.568;5.448;2024-02-15T04:28:06;18.10;;;9.65;;
28266;SDS011;15525;45.568;5.448;2024-02-15T04:30:33;16.67;;;9.07;;
28266;SDS011;15525;45.568;5.448;2024-02-15T04:32:59;17.52;;;9.77;;
28266;SDS011;15525;45.568;5.448;2024-02-15T04:35:25;16.83;;;9.35;;
28266;SDS011;15525;45.568;5.448;2024-02-15T04:37:52;19.95;;;10.30;;
28266;SDS011;15525;45.568;5.448;2024-02-15T04:40:18;17.73;;;9.77;;
28266;SDS011;15525;45.568;5.448;2024-02-15T04:42:44;18.50;;;9.48;;
28266;SDS011;15525;45.568;5.448;2024-02-15T04:45:12;21.10;;;10.00;;
28266;SDS011;15525;45.568;5.448;2024-02-15T04:47:39;15.57;;;9.40;;
28266;SDS011;15525;45.568;5.448;2024-02-15T04:50:06;15.27;;;9.50;;
28266;SDS011;15525;45.568;5.448;2024-02-15T04:52:32;17.52;;;9.13;;
28266;SDS011;15525;45.568;5.448;2024-02-15T04:54:57;17.83;;;8.85;;
28266;SDS011;15525;45.568;5.448;2024-02-15T04:57:24;16.50;;;9.00;;
28266;SDS011;15525;45.568;5.448;2024-02-15T04:59:55;14.68;;;8.35;;
28266;SDS011;15525;45.568;5.448;2024-02-15T05:02:20;14.73;;;8.95;;
28266;SDS011;15525;45.568;5.448;2024-02-15T05:04:49;15.93;;;9.23;;
28266;SDS011;15525;45.568;5.448;2024-02-15T05:07:22;14.38;;;8.95;;
28266;SDS011;15525;45.568;5.448;2024-02-15T05:09:51;19.02;;;9.98;;
28266;SDS011;15525;45.568;5.448;2024-02-15T05:12:22;17.80;;;10.98;;
28266;SDS011;15525;45.568;5.448;2024-02-15T05:14:51;21.13;;;11.00;;
28266;SDS011;15525;45.568;5.448;2024-02-15T05:17:17;22.65;;;10.55;;
28266;SDS011;15525;45.568;5.448;2024-02-15T05:19:42;15.90;;;9.68;;
28266;SDS011;15525;45.568;5.448;2024-02-15T05:22:07;18.80;;;9.93;;
28266;SDS011;15525;45.568;5.448;2024-02-15T05:24:33;23.70;;;11.23;;
28266;SDS011;15525;45.568;5.448;2024-02-15T05:26:59;17.42;;;10.55;;
28266;SDS011;15525;45.568;5.448;2024-02-15T05:29:24;15.35;;;10.02;;
28266;SDS011;15525;45.568;5.448;2024-02-15T05:31:50;24.83;;;12.15;;
28266;SDS011;15525;45.568;5.448;2024-02-15T05:34:16;24.20;;;12.63;;
28266;SDS011;15525;45.568;5.448;2024-02-15T05:36:42;19.98;;;11.35;;
28266;SDS011;15525;45.568;5.448;2024-02-15T05:39:08;19.25;;;10.50;;
28266;SDS011;15525;45.568;5.448;2024-02-15T05:41:36;16.15;;;9.00;;
28266;SDS011;15525;45.568;5.448;2024-02-15T05:44:02;18.10;;;10.10;;
28266;SDS011;15525;45.568;5.448;2024-02-15T05:46:31;15.43;;;9.27;;
28266;SDS011;15525;45.568;5.448;2024-02-15T05:48:57;17.98;;;10.45;;
28266;SDS011;15525;45.568;5.448;2024-02-15T05:51:22;20.55;;;10.23;;
28266;SDS011;15525;45.568;5.448;2024-02-15T05:53:48;18.45;;;9.50;;
28266;SDS011;15525;45.568;5.448;2024-02-15T05:56:14;19.90;;;10.18;;
28266;SDS011;15525;45.568;5.448;2024-02-15T05:58:40;16.73;;;10.05;;
28266;SDS011;15525;45.568;5.448;2024-02-15T06:01:06;18.75;;;9.75;;
28266;SDS011;15525;45.568;5.448;2024-02-15T06:03:32;19.05;;;10.15;;
28266;SDS011;15525;45.568;5.448;2024-02-15T06:06:01;17.27;;;9.82;;
28266;SDS011;15525;45.568;5.448;2024-02-15T06:08:31;18.08;;;9.82;;
28266;SDS011;15525;45.568;5.448;2024-02-15T06:10:57;16.88;;;10.30;;
28266;SDS011;15525;45.568;5.448;2024-02-15T06:13:23;17.00;;;10.45;;
28266;SDS011;15525;45.568;5.448;2024-02-15T06:15:49;21.23;;;12.05;;
28266;SDS011;15525;45.568;5.448;2024-02-15T06:18:21;22.63;;;13.00;;
28266;SDS011;15525;45.568;5.448;2024-02-15T06:20:49;21.30;;;12.38;;
28266;SDS011;15525;45.568;5.448;2024-02-15T06:23:18;22.65;;;11.57;;
28266;SDS011;15525;45.568;5.448;2024-02-15T06:25:44;21.80;;;9.80;;
28266;SDS011;15525;45.568;5.448;2024-02-15T06:28:12;16.65;;;9.15;;
28266;SDS011;15525;45.568;5.448;2024-02-15T06:30:44;17.83;;;9.98;;
28266;SDS011;15525;45.568;5.448;2024-02-15T06:33:28;20.63;;;10.10;;
28266;SDS011;15525;45.568;5.448;2024-02-15T06:36:12;23.10;;;10.27;;
28266;SDS011;15525;45.568;5.448;2024-02-15T06:39:04;21.67;;;11.32;;
28266;SDS011;15525;45.568;5.448;2024-02-15T06:42:04;19.65;;;11.27;;
28266;SDS011;15525;45.568;5.448;2024-02-15T06:44:31;21.17;;;10.60;;
28266;SDS011;15525;45.568;5.448;2024-02-15T06:46:57;18.92;;;10.60;;
28266;SDS011;15525;45.568;5.448;2024-02-15T06:49:22;18.15;;;10.07;;
28266;SDS011;15525;45.568;5.448;2024-02-15T06:51:50;18.98;;;10.52;;
28266;SDS011;15525;45.568;5.448;2024-02-15T06:54:15;24.27;;;10.75;;
28266;SDS011;15525;45.568;5.448;2024-02-15T06:56:43;16.00;;;9.98;;
28266;SDS011;15525;45.568;5.448;2024-02-15T06:59:12;18.77;;;9.77;;
28266;SDS011;15525;45.568;5.448;2024-02-15T07:01:43;19.73;;;10.40;;
28266;SDS011;15525;45.568;5.448;2024-02-15T07:04:08;18.15;;;10.38;;
28266;SDS011;15525;45.568;5.448;2024-02-15T07:06:37;22.73;;;9.98;;
28266;SDS011;15525;45.568;5.448;2024-02-15T07:09:06;18.13;;;9.60;;
28266;SDS011;15525;45.568;5.448;2024-02-15T07:11:34;15.88;;;9.20;;
28266;SDS011;15525;45.568;5.448;2024-02-15T07:14:00;18.33;;;9.98;;
28266;SDS011;15525;45.568;5.448;2024-02-15T07:16:26;19.00;;;10.23;;
28266;SDS011;15525;45.568;5.448;2024-02-15T07:18:52;16.52;;;10.52;;
28266;SDS011;15525;45.568;5.448;2024-02-15T07:21:17;19.80;;;10.25;;
28266;SDS011;15525;45.568;5.448;2024-02-15T07:23:46;19.30;;;10.68;;
28266;SDS011;15525;45.568;5.448;2024-02-15T07:26:11;16.90;;;10.30;;
28266;SDS011;15525;45.568;5.448;2024-02-15T07:28:37;21.13;;;10.10;;
28266;SDS011;15525;45.568;5.448;2024-02-15T07:31:06;18.95;;;9.68;;
28266;SDS011;15525;45.568;5.448;2024-02-15T07:33:32;15.93;;;9.25;;
28266;SDS011;15525;45.568;5.448;2024-02-15T07:36:00;18.58;;;9.50;;
28266;SDS011;15525;45.568;5.448;2024-02-15T07:38:25;15.50;;;9.13;;
28266;SDS011;15525;45.568;5.448;2024-02-15T07:40:51;17.52;;;9.50;;
28266;SDS011;15525;45.568;5.448;2024-02-15T07:43:16;18.08;;;9.77;;
28266;SDS011;15525;45.568;5.448;2024-02-15T07:45:42;18.30;;;9.38;;
28266;SDS011;15525;45.568;5.448;2024-02-15T07:48:07;15.98;;;9.70;;
28266;SDS011;15525;45.568;5.448;2024-02-15T07:50:33;17.40;;;10.23;;
28266;SDS011;15525;45.568;5.448;2024-02-15T07:52:58;18.83;;;9.57;;
28266;SDS011;15525;45.568;5.448;2024-02-15T07:55:24;24.10;;;10.23;;
28266;SDS011;15525;45.568;5.448;2024-02-15T07:57:52;19.48;;;9.88;;
28266;SDS011;15525;45.568;5.448;2024-02-15T08:00:18;18.10;;;10.02;;
28266;SDS011;15525;45.568;5.448;2024-02-15T08:02:43;21.13;;;10.82;;
28266;SDS011;15525;45.568;5.448;2024-02-15T08:05:09;21.42;;;11.85;;
28266;SDS011;15525;45.568;5.448;2024-02-15T08:07:44;22.38;;;12.35;;
28266;SDS011;15525;45.568;5.448;2024-02-15T08:10:10;18.75;;;10.55;;
28266;SDS011;15525;45.568;5.448;2024-02-15T08:15:08;19.90;;;10.68;;
28266;SDS011;15525;45.568;5.448;2024-02-15T08:17:40;19.65;;;10.80;;
28266;SDS011;15525;45.568;5.448;2024-02-15T08:20:09;19.33;;;10.00;;
28266;SDS011;15525;45.568;5.448;2024-02-15T08:22:35;13.55;;;9.02;;
28266;SDS011;15525;45.568;5.448;2024-02-15T08:25:13;17.27;;;9.20;;
28266;SDS011;15525;45.568;5.448;2024-02-15T08:27:41;19.17;;;9.65;;
28266;SDS011;15525;45.568;5.448;2024-02-15T08:30:10;15.00;;;9.57;;
28266;SDS011;15525;45.568;5.448;2024-02-15T08:32:41;15.95;;;9.30;;
28266;SDS011;15525;45.568;5.448;2024-02-15T08:35:10;20.38;;;10.20;;
28266;SDS011;15525;45.568;5.448;2024-02-15T08:37:39;19.75;;;10.10;;
28266;SDS011;15525;45.568;5.448;2024-02-15T08:40:07;18.60;;;9.45;;
28266;SDS011;15525;45.568;5.448;2024-02-15T08:42:39;17.45;;;9.70;;
28266;SDS011;15525;45.568;5.448;2024-02-15T08:45:09;15.30;;;9.55;;
28266;SDS011;15525;45.568;5.448;2024-02-15T08:47:39;14.75;;;8.95;;
28266;SDS011;15525;45.568;5.448;2024-02-15T08:50:06;14.85;;;9.45;;
28266;SDS011;15525;45.568;5.448;2024-02-15T08:52:37;22.63;;;9.82;;
28266;SDS011;15525;45.568;5.448;2024-02-15T08:55:08;17.48;;;10.05;;
28266;SDS011;15525;45.568;5.448;2024-02-15T08:57:34;18.08;;;10.85;;
28266;SDS011;15525;45.568;5.448;2024-02-15T09:00:02;15.73;;;10.07;;
28266;SDS011;15525;45.568;5.448;2024-02-15T09:02:38;16.65;;;9.30;;
28266;SDS011;15525;45.568;5.448;2024-02-15T09:05:16;15.20;;;9.50;;
28266;SDS011;15525;45.568;5.448;2024-02-15T09:07:43;14.40;;;7.80;;
28266;SDS011;15525;45.568;5.448;2024-02-15T09:10:12;12.55;;;7.90;;
28266;SDS011;15525;45.568;5.448;2024-02-15T09:12:38;13.85;;;7.15;;
28266;SDS011;15525;45.568;5.448;2024-02-15T09:15:05;12.75;;;6.80;;
28266;SDS011;15525;45.568;5.448;2024-02-15T09:17:36;11.80;;;6.55;;
28266;SDS011;15525;45.568;5.448;2024-02-15T09:20:06;16.33;;;7.03;;
28266;SDS011;15525;45.568;5.448;2024-02-15T09:22:42;11.85;;;6.45;;
28266;SDS011;15525;45.568;5.448;2024-02-15T09:25:19;11.02;;;6.35;;
28266;SDS011;15525;45.568;5.448;2024-02-15T09:27:45;11.63;;;6.05;;
28266;SDS011;15525;45.568;5.448;2024-02-15T09:30:11;11.75;;;6.00;;
28266;SDS011;15525;45.568;5.448;2024-02-15T09:32:37;10.77;;;5.95;;
28266;SDS011;15525;45.568;5.448;2024-02-15T09:35:06;8.32;;;5.57;;
28266;SDS011;15525;45.568;5.448;2024-02-15T09:37:36;9.38;;;5.78;;
28266;SDS011;15525;45.568;5.448;2024-02-15T09:40:04;7.78;;;5.22;;
28266;SDS011;15525;45.568;5.448;2024-02-15T09:42:35;8.85;;;5.65;;
28266;SDS011;15525;45.568;5.448;2024-02-15T09:45:01;9.05;;;5.57;;
28266;SDS011;15525;45.568;5.448;2024-02-15T09:47:38;11.73;;;6.30;;
28266;SDS011;15525;45.568;5.448;2024-02-15T09:50:07;10.27;;;6.13;;
28266;SDS011;15525;45.568;5.448;2024-02-15T09:52:36;11.68;;;6.60;;
28266;SDS011;15525;45.568;5.448;2024-02-15T09:55:09;13.60;;;7.97;;
28266;SDS011;15525;45.568;5.448;2024-02-15T09:57:39;12.38;;;8.40;;
28266;SDS011;15525;45.568;5.448;2024-02-15T10:00:06;16.83;;;8.40;;
28266;SDS011;15525;45.568;5.448;2024-02-15T10:02:32;15.63;;;8.25;;
28266;SDS011;15525;45.568;5.448;2024-02-15T10:05:01;13.93;;;8.45;;
28266;SDS011;15525;45.568;5.448;2024-02-15T10:07:27;12.70;;;7.82;;
28266;SDS011;15525;45.568;5.448;2024-02-15T10:09:53;10.77;;;7.07;;
28266;SDS011;15525;45.568;5.448;2024-02-15T10:12:19;10.68;;;6.47;;
28266;SDS011;15525;45.568;5.448;2024-02-15T10:14:48;10.27;;;6.78;;
28266;SDS011;15525;45.568;5.448;2024-02-15T10:17:15;10.02;;;6.88;;
28266;SDS011;15525;45.568;5.448;2024-02-15T10:19:42;14.65;;;6.75;;
28266;SDS011;15525;45.568;5.448;2024-02-15T10:22:09;10.18;;;6.57;;
28266;SDS011;15525;45.568;5.448;2024-02-15T10:24:38;13.13;;;6.93;;
28266;SDS011;15525;45.568;5.448;2024-02-15T10:27:04;12.98;;;7.50;;
28266;SDS011;15525;45.568;5.448;2024-02-15T10:29:31;12.63;;;6.97;;
28266;SDS011;15525;45.568;5.448;2024-02-15T10:31:59;13.70;;;6.95;;
28266;SDS011;15525;45.568;5.448;2024-02-15T10:34:25;17.48;;;6.70;;
28266;SDS011;15525;45.568;5.448;2024-02-15T10:36:55;12.18;;;6.13;;
28266;SDS011;15525;45.568;5.448;2024-02-15T10:39:36;10.20;;;6.55;;
28266;SDS011;15525;45.568;5.448;2024-02-15T10:42:01;10.07;;;6.18;;
28266;SDS011;15525;45.568;5.448;2024-02-15T10:44:28;11.25;;;6.25;;
28266;SDS011;15525;45.568;5.448;2024-02-15T10:46:53;11.43;;;6.13;;
28266;SDS011;15525;45.568;5.448;2024-02-15T10:49:22;8.43;;;5.10;;
28266;SDS011;15525;45.568;5.448;2024-02-15T10:51:58;11.05;;;5.40;;
28266;SDS011;15525;45.568;5.448;2024-02-15T10:54:51;8.90;;;5.30;;
28266;SDS011;15525;45.568;5.448;2024-02-15T10:57:21;12.27;;;5.93;;
28266;SDS011;15525;45.568;5.448;2024-02-15T10:59:55;9.68;;;5.68;;
28266;SDS011;15525;45.568;5.448;2024-02-15T11:02:38;8.77;;;6.13;;
28266;SDS011;15525;45.568;5.448;2024-02-15T11:05:08;9.52;;;5.78;;
28266;SDS011;15525;45.568;5.448;2024-02-15T11:07:35;8.73;;;5.50;;
28266;SDS011;15525;45.568;5.448;2024-02-15T11:10:02;10.30;;;5.28;;
28266;SDS011;15525;45.568;5.448;2024-02-15T11:12:35;9.82;;;5.40;;
28266;SDS011;15525;45.568;5.448;2024-02-15T11:15:01;8.35;;;5.25;;
28266;SDS011;15525;45.568;5.448;2024-02-15T11:20:04;10.88;;;6.07;;
28266;SDS011;15525;45.568;5.448;2024-02-15T11:22:37;9.87;;;5.50;;
28266;SDS011;15525;45.568;5.448;2024-02-15T11:25:07;12.38;;;6.20;;
28266;SDS011;15525;45.568;5.448;2024-02-15T11:27:34;8.70;;;5.55;;
28266;SDS011;15525;45.568;5.448;2024-02-15T11:30:05;8.68;;;5.30;;
28266;SDS011;15525;45.568;5.448;2024-02-15T11:32:47;7.68;;;5.47;;
28266;SDS011;15525;45.568;5.448;2024-02-15T11:35:19;8.68;;;5.60;;
28266;SDS011;15525;45.568;5.448;2024-02-15T11:40:13;8.77;;;5.95;;
28266;SDS011;15525;45.568;5.448;2024-02-15T11:42:57;9.65;;;5.97;;
28266;SDS011;15525;45.568;5.448;2024-02-15T11:45:29;10.75;;;6.25;;
28266;SDS011;15525;45.568;5.448;2024-02-15T11:48:02;12.23;;;6.72;;
28266;SDS011;15525;45.568;5.448;2024-02-15T11:50:28;15.77;;;7.05;;
28266;SDS011;15525;45.568;5.448;2024-02-15T11:53:03;11.00;;;5.97;;
28266;SDS011;15525;45.568;5.448;2024-02-15T11:55:31;14.27;;;6.97;;
28266;SDS011;15525;45.568;5.448;2024-02-15T11:58:01;11.10;;;6.53;;
28266;SDS011;15525;45.568;5.448;2024-02-15T12:00:34;11.48;;;6.18;;
28266;SDS011;15525;45.568;5.448;2024-02-15T12:03:18;9.07;;;6.15;;
28266;SDS011;15525;45.568;5.448;2024-02-15T12:06:02;10.35;;;6.38;;
28266;SDS011;15525;45.568;5.448;2024-02-15T12:08:47;10.38;;;6.10;;
28266;SDS011;15525;45.568;5.448;2024-02-15T12:11:32;9.73;;;5.95;;
28266;SDS011;15525;45.568;5.448;2024-02-15T12:14:16;10.60;;;6.07;;
28266;SDS011;15525;45.568;5.448;2024-02-15T12:19:44;10.38;;;5.88;;
28266;SDS011;15525;45.568;5.448;2024-02-15T12:22:11;10.10;;;5.30;;
28266;SDS011;15525;45.568;5.448;2024-02-15T12:24:37;8.90;;;5.63;;
28266;SDS011;15525;45.568;5.448;2024-02-15T12:27:02;9.27;;;5.75;;
28266;SDS011;15525;45.568;5.448;2024-02-15T12:29:28;7.05;;;5.25;;
28266;SDS011;15525;45.568;5.448;2024-02-15T12:31:54;8.18;;;4.82;;
28266;SDS011;15525;45.568;5.448;2024-02-15T12:34:20;5.90;;;4.43;;
28266;SDS011;15525;45.568;5.448;2024-02-15T12:36:46;7.78;;;5.05;;
28266;SDS011;15525;45.568;5.448;2024-02-15T12:39:14;6.40;;;4.85;;
28266;SDS011;15525;45.568;5.448;2024-02-15T12:41:49;8.30;;;4.95;;
28266;SDS011;15525;45.568;5.448;2024-02-15T12:44:17;8.10;;;5.00;;
28266;SDS011;15525;45.568;5.448;2024-02-15T12:46:46;9.98;;;5.85;;
28266;SDS011;15525;45.568;5.448;2024-02-15T12:49:34;9.88;;;6.15;;
28266;SDS011;15525;45.568;5.448;2024-02-15T12:55:07;11.45;;;6.20;;
28266;SDS011;15525;45.568;5.448;2024-02-15T12:57:33;8.30;;;5.90;;
28266;SDS011;15525;45.568;5.448;2024-02-15T12:59:59;9.57;;;6.07;;
28266;SDS011;15525;45.568;5.448;2024-02-15T13:02:25;7.93;;;6.05;;
28266;SDS011;15525;45.568;5.448;2024-02-15T13:04:56;8.57;;;5.80;;
28266;SDS011;15525;45.568;5.448;2024-02-15T13:07:23;9.23;;;6.03;;
28266;SDS011;15525;45.568;5.448;2024-02-15T13:09:48;10.60;;;6.28;;
28266;SDS011;15525;45.568;5.448;2024-02-15T13:12:14;10.85;;;6.57;;
28266;SDS011;15525;45.568;5.448;2024-02-15T13:14:40;9.65;;;6.10;;
28266;SDS011;15525;45.568;5.448;2024-02-15T13:17:05;10.93;;;6.28;;
28266;SDS011;15525;45.568;5.448;2024-02-15T13:19:31;8.98;;;5.93;;
28266;SDS011;15525;45.568;5.448;2024-02-15T13:21:56;10.90;;;6.00;;
28266;SDS011;15525;45.568;5.448;2024-02-15T13:24:23;10.65;;;5.95;;
28266;SDS011;15525;45.568;5.448;2024-02-15T13:26:51;7.68;;;4.32;;
28266;SDS011;15525;45.568;5.448;2024-02-15T13:29:16;4.15;;;3.20;;
28266;SDS011;15525;45.568;5.448;2024-02-15T13:31:41;7.15;;;4.40;;
28266;SDS011;15525;45.568;5.448;2024-02-15T13:34:07;5.80;;;2.90;;
28266;SDS011;15525;45.568;5.448;2024-02-15T13:36:33;9.10;;;2.65;;
28266;SDS011;15525;45.568;5.448;2024-02-15T13:38:59;5.32;;;3.10;;
28266;SDS011;15525;45.568;5.448;2024-02-15T13:41:25;4.18;;;2.88;;
28266;SDS011;15525;45.568;5.448;2024-02-15T13:43:51;4.30;;;2.60;;
28266;SDS011;15525;45.568;5.448;2024-02-15T13:46:17;6.68;;;3.22;;
28266;SDS011;15525;45.568;5.448;2024-02-15T13:48:45;5.75;;;3.00;;
28266;SDS011;15525;45.568;5.448;2024-02-15T13:51:10;4.78;;;2.70;;
28266;SDS011;15525;45.568;5.448;2024-02-15T13:53:36;6.22;;;3.60;;
28266;SDS011;15525;45.568;5.448;2024-02-15T13:56:02;6.65;;;3.00;;
28266;SDS011;15525;45.568;5.448;2024-02-15T13:58:28;5.60;;;2.90;;
28266;SDS011;15525;45.568;5.448;2024-02-15T14:00:53;6.70;;;3.20;;
28266;SDS011;15525;45.568;5.448;2024-02-15T14:03:19;6.35;;;3.20;;
28266;SDS011;15525;45.568;5.448;2024-02-15T14:05:46;5.43;;;2.97;;
28266;SDS011;15525;45.568;5.448;2024-02-15T14:08:14;5.32;;;2.90;;
28266;SDS011;15525;45.568;5.448;2024-02-15T14:10:40;7.53;;;3.20;;
28266;SDS011;15525;45.568;5.448;2024-02-15T14:13:06;6.28;;;2.83;;
28266;SDS011;15525;45.568;5.448;2024-02-15T14:15:34;6.50;;;3.28;;
28266;SDS011;15525;45.568;5.448;2024-02-15T14:18:03;6.53;;;3.00;;
28266;SDS011;15525;45.568;5.448;2024-02-15T14:20:32;7.20;;;2.60;;
28266;SDS011;15525;45.568;5.448;2024-02-15T14:22:58;6.78;;;3.30;;
28266;SDS011;15525;45.568;5.448;2024-02-15T14:25:28;5.60;;;2.95;;
28266;SDS011;15525;45.568;5.448;2024-02-15T14:27:56;5.78;;;2.90;;
28266;SDS011;15525;45.568;5.448;2024-02-15T14:30:22;6.55;;;3.40;;
28266;SDS011;15525;45.568;5.448;2024-02-15T14:33:06;7.55;;;3.22;;
28266;SDS011;15525;45.568;5.448;2024-02-15T14:35:36;5.85;;;3.15;;
28266;SDS011;15525;45.568;5.448;2024-02-15T14:38:04;5.95;;;3.20;;
28266;SDS011;15525;45.568;5.448;2024-02-15T14:40:33;6.40;;;3.03;;
28266;SDS011;15525;45.568;5.448;2024-02-15T14:42:59;5.57;;;3.00;;
28266;SDS011;15525;45.568;5.448;2024-02-15T14:45:24;8.18;;;3.20;;
28266;SDS011;15525;45.568;5.448;2024-02-15T14:47:51;4.25;;;2.97;;
28266;SDS011;15525;45.568;5.448;2024-02-15T14:50:16;5.55;;;3.05;;
28266;SDS011;15525;45.568;5.448;2024-02-15T14:52:42;7.13;;;3.00;;
28266;SDS011;15525;45.568;5.448;2024-02-15T14:55:07;9.05;;;4.80;;
28266;SDS011;15525;45.568;5.448;2024-02-15T14:57:33;7.45;;;3.47;;
28266;SDS011;15525;45.568;5.448;2024-02-15T15:00:01;8.65;;;3.55;;
28266;SDS011;15525;45.568;5.448;2024-02-15T15:02:28;7.55;;;3.50;;
28266;SDS011;15525;45.568;5.448;2024-02-15T15:04:55;5.75;;;3.08;;
28266;SDS011;15525;45.568;5.448;2024-02-15T15:07:39;7.45;;;3.70;;
28266;SDS011;15525;45.568;5.448;2024-02-15T15:10:23;6.82;;;3.80;;
28266;SDS011;15525;45.568;5.448;2024-02-15T15:13:07;8.10;;;3.60;;
28266;SDS011;15525;45.568;5.448;2024-02-15T15:15:34;8.40;;;3.95;;